sensor_id;sensor_type;location;lat;lon;timestamp;P1;durP1;ratioP1;P2;durP2;ratioP2
25439;SDS011;13365;52.208;5.488;2024-01-06T00:01:38;11.45;;;5.20;;
25439;SDS011;13365;52.208;5.488;2024-01-06T00:04:03;12.63;;;7.22;;
25439;SDS011;13365;52.208;5.488;2024-01-06T00:06:31;11.70;;;6.47;;
25439;SDS011;13365;52.208;5.488;2024-01-06T00:08:56;10.13;;;5.63;;
25439;SDS011;13365;52.208;5.488;2024-01-06T00:11:22;9.27;;;5.07;;
25439;SDS011;13365;52.208;5.488;2024-01-06T00:13:48;10.07;;;5.70;;
25439;SDS011;13365;52.208;5.488;2024-01-06T00:16:16;12.57;;;6.07;;
25439;SDS011;13365;52.208;5.488;2024-01-06T00:18:43;9.40;;;5.65;;
25439;SDS011;13365;52.208;5.488;2024-01-06T00:21:09;11.98;;;6.03;;
25439;SDS011;13365;52.208;5.488;2024-01-06T00:23:35;10.40;;;6.40;;
25439;SDS011;13365;52.208;5.488;2024-01-06T00:26:00;10.73;;;5.68;;
25439;SDS011;13365;52.208;5.488;2024-01-06T00:28:27;13.43;;;7.65;;
25439;SDS011;13365;52.208;5.488;2024-01-06T00:30:53;11.88;;;6.22;;
25439;SDS011;13365;52.208;5.488;2024-01-06T00:33:18;10.90;;;6.35;;
25439;SDS011;13365;52.208;5.488;2024-01-06T00:35:44;10.55;;;6.22;;
25439;SDS011;13365;52.208;5.488;2024-01-06T00:38:09;13.77;;;6.90;;
25439;SDS011;13365;52.208;5.488;2024-01-06T00:40:35;12.35;;;7.05;;
25439;SDS011;13365;52.208;5.488;2024-01-06T00:43:00;15.82;;;7.72;;
25439;SDS011;13365;52.208;5.488;2024-01-06T00:45:26;12.60;;;7.43;;
25439;SDS011;13365;52.208;5.488;2024-01-06T00:47:52;12.40;;;7.35;;
25439;SDS011;13365;52.208;5.488;2024-01-06T00:50:17;13.45;;;7.93;;
25439;SDS011;13365;52.208;5.488;2024-01-06T00:52:44;14.52;;;8.07;;
25439;SDS011;13365;52.208;5.488;2024-01-06T00:55:10;16.55;;;8.75;;
25439;SDS011;13365;52.208;5.488;2024-01-06T00:57:35;17.23;;;8.55;;
25439;SDS011;13365;52.208;5.488;2024-01-06T01:00:01;13.15;;;6.97;;
25439;SDS011;13365;52.208;5.488;2024-01-06T01:02:28;16.27;;;8.05;;
25439;SDS011;13365;52.208;5.488;2024-01-06T01:04:54;13.55;;;7.90;;
25439;SDS011;13365;52.208;5.488;2024-01-06T01:07:19;17.17;;;8.43;;
25439;SDS011;13365;52.208;5.488;2024-01-06T01:09:45;13.10;;;8.20;;
25439;SDS011;13365;52.208;5.488;2024-01-06T01:12:10;17.90;;;8.40;;
25439;SDS011;13365;52.208;5.488;2024-01-06T01:14:36;11.35;;;7.25;;
25439;SDS011;13365;52.208;5.488;2024-01-06T01:17:01;13.32;;;6.88;;
25439;SDS011;13365;52.208;5.488;2024-01-06T01:19:27;11.35;;;6.82;;
25439;SDS011;13365;52.208;5.488;2024-01-06T01:21:53;12.25;;;6.93;;
25439;SDS011;13365;52.208;5.488;2024-01-06T01:24:20;12.00;;;7.53;;
25439;SDS011;13365;52.208;5.488;2024-01-06T01:26:49;14.73;;;7.07;;
25439;SDS011;13365;52.208;5.488;2024-01-06T01:29:15;15.25;;;7.65;;
25439;SDS011;13365;52.208;5.488;2024-01-06T01:31:45;14.48;;;7.78;;
25439;SDS011;13365;52.208;5.488;2024-01-06T01:34:11;11.90;;;7.13;;
25439;SDS011;13365;52.208;5.488;2024-01-06T01:36:36;11.85;;;6.50;;
25439;SDS011;13365;52.208;5.488;2024-01-06T01:39:02;12.10;;;6.93;;
25439;SDS011;13365;52.208;5.488;2024-01-06T01:41:28;11.18;;;5.93;;
25439;SDS011;13365;52.208;5.488;2024-01-06T01:43:53;12.55;;;7.28;;
25439;SDS011;13365;52.208;5.488;2024-01-06T01:46:32;10.95;;;6.28;;
25439;SDS011;13365;52.208;5.488;2024-01-06T01:48:58;13.07;;;7.38;;
25439;SDS011;13365;52.208;5.488;2024-01-06T01:51:29;11.88;;;6.70;;
25439;SDS011;13365;52.208;5.488;2024-01-06T01:53:59;12.05;;;6.63;;
25439;SDS011;13365;52.208;5.488;2024-01-06T01:56:30;11.70;;;7.47;;
25439;SDS011;13365;52.208;5.488;2024-01-06T01:58:59;12.13;;;7.22;;
25439;SDS011;13365;52.208;5.488;2024-01-06T02:01:31;16.25;;;7.18;;
25439;SDS011;13365;52.208;5.488;2024-01-06T02:03:57;12.13;;;7.05;;
25439;SDS011;13365;52.208;5.488;2024-01-06T02:06:24;14.23;;;6.30;;
25439;SDS011;13365;52.208;5.488;2024-01-06T02:08:50;13.95;;;7.43;;
25439;SDS011;13365;52.208;5.488;2024-01-06T02:11:15;10.82;;;6.60;;
25439;SDS011;13365;52.208;5.488;2024-01-06T02:13:41;13.65;;;7.00;;
25439;SDS011;13365;52.208;5.488;2024-01-06T02:16:06;10.95;;;6.55;;
25439;SDS011;13365;52.208;5.488;2024-01-06T02:18:32;10.65;;;6.30;;
25439;SDS011;13365;52.208;5.488;2024-01-06T02:20:59;11.50;;;6.55;;
25439;SDS011;13365;52.208;5.488;2024-01-06T02:23:26;11.90;;;6.70;;
25439;SDS011;13365;52.208;5.488;2024-01-06T02:25:52;14.57;;;7.40;;
25439;SDS011;13365;52.208;5.488;2024-01-06T02:28:18;15.75;;;7.85;;
25439;SDS011;13365;52.208;5.488;2024-01-06T02:30:43;14.35;;;8.48;;
25439;SDS011;13365;52.208;5.488;2024-01-06T02:33:09;16.95;;;8.82;;
25439;SDS011;13365;52.208;5.488;2024-01-06T02:35:35;16.20;;;9.52;;
25439;SDS011;13365;52.208;5.488;2024-01-06T02:38:01;17.13;;;9.05;;
25439;SDS011;13365;52.208;5.488;2024-01-06T02:40:27;17.05;;;9.43;;
25439;SDS011;13365;52.208;5.488;2024-01-06T02:42:52;17.67;;;9.30;;
25439;SDS011;13365;52.208;5.488;2024-01-06T02:45:18;17.27;;;9.18;;
25439;SDS011;13365;52.208;5.488;2024-01-06T02:47:44;16.60;;;9.18;;
25439;SDS011;13365;52.208;5.488;2024-01-06T02:50:09;18.08;;;9.30;;
25439;SDS011;13365;52.208;5.488;2024-01-06T02:52:35;19.55;;;9.68;;
25439;SDS011;13365;52.208;5.488;2024-01-06T02:55:00;17.55;;;9.98;;
25439;SDS011;13365;52.208;5.488;2024-01-06T02:57:27;21.08;;;11.20;;
25439;SDS011;13365;52.208;5.488;2024-01-06T02:59:55;18.88;;;10.20;;
25439;SDS011;13365;52.208;5.488;2024-01-06T03:02:21;19.27;;;10.82;;
25439;SDS011;13365;52.208;5.488;2024-01-06T03:04:47;21.25;;;10.00;;
25439;SDS011;13365;52.208;5.488;2024-01-06T03:07:15;18.52;;;8.98;;
25439;SDS011;13365;52.208;5.488;2024-01-06T03:09:42;16.58;;;9.70;;
25439;SDS011;13365;52.208;5.488;2024-01-06T03:12:07;17.25;;;9.95;;
25439;SDS011;13365;52.208;5.488;2024-01-06T03:14:36;18.35;;;10.13;;
25439;SDS011;13365;52.208;5.488;2024-01-06T03:17:02;19.83;;;10.27;;
25439;SDS011;13365;52.208;5.488;2024-01-06T03:19:29;18.42;;;9.68;;
25439;SDS011;13365;52.208;5.488;2024-01-06T03:21:57;16.45;;;9.48;;
25439;SDS011;13365;52.208;5.488;2024-01-06T03:24:23;18.20;;;8.85;;
25439;SDS011;13365;52.208;5.488;2024-01-06T03:26:50;15.20;;;8.10;;
25439;SDS011;13365;52.208;5.488;2024-01-06T03:29:16;14.98;;;8.15;;
25439;SDS011;13365;52.208;5.488;2024-01-06T03:31:44;15.85;;;8.80;;
25439;SDS011;13365;52.208;5.488;2024-01-06T03:34:11;14.65;;;8.43;;
25439;SDS011;13365;52.208;5.488;2024-01-06T03:36:37;14.77;;;8.68;;
25439;SDS011;13365;52.208;5.488;2024-01-06T03:39:03;14.57;;;8.30;;
25439;SDS011;13365;52.208;5.488;2024-01-06T03:41:29;17.63;;;9.70;;
25439;SDS011;13365;52.208;5.488;2024-01-06T03:43:54;17.92;;;9.90;;
25439;SDS011;13365;52.208;5.488;2024-01-06T03:46:20;17.63;;;9.70;;
25439;SDS011;13365;52.208;5.488;2024-01-06T03:48:46;18.73;;;10.15;;
25439;SDS011;13365;52.208;5.488;2024-01-06T03:51:12;19.58;;;10.25;;
25439;SDS011;13365;52.208;5.488;2024-01-06T03:53:37;17.17;;;9.32;;
25439;SDS011;13365;52.208;5.488;2024-01-06T03:56:03;20.60;;;10.07;;
25439;SDS011;13365;52.208;5.488;2024-01-06T03:58:29;15.75;;;8.90;;
25439;SDS011;13365;52.208;5.488;2024-01-06T04:00:55;16.35;;;8.20;;
25439;SDS011;13365;52.208;5.488;2024-01-06T04:03:20;15.18;;;7.90;;
25439;SDS011;13365;52.208;5.488;2024-01-06T04:05:46;14.30;;;8.27;;
25439;SDS011;13365;52.208;5.488;2024-01-06T04:08:11;14.52;;;7.70;;
25439;SDS011;13365;52.208;5.488;2024-01-06T04:10:37;15.18;;;8.30;;
25439;SDS011;13365;52.208;5.488;2024-01-06T04:13:03;14.90;;;8.23;;
25439;SDS011;13365;52.208;5.488;2024-01-06T04:15:29;17.27;;;8.70;;
25439;SDS011;13365;52.208;5.488;2024-01-06T04:17:54;19.27;;;10.02;;
25439;SDS011;13365;52.208;5.488;2024-01-06T04:20:20;17.88;;;9.20;;
25439;SDS011;13365;52.208;5.488;2024-01-06T04:22:46;15.63;;;8.68;;
25439;SDS011;13365;52.208;5.488;2024-01-06T04:25:11;15.85;;;8.00;;
25439;SDS011;13365;52.208;5.488;2024-01-06T04:27:37;17.33;;;8.48;;
25439;SDS011;13365;52.208;5.488;2024-01-06T04:30:03;15.48;;;6.70;;
25439;SDS011;13365;52.208;5.488;2024-01-06T04:32:28;12.05;;;6.70;;
25439;SDS011;13365;52.208;5.488;2024-01-06T04:34:54;15.02;;;7.25;;
25439;SDS011;13365;52.208;5.488;2024-01-06T04:37:21;12.30;;;7.13;;
25439;SDS011;13365;52.208;5.488;2024-01-06T04:39:47;14.60;;;7.38;;
25439;SDS011;13365;52.208;5.488;2024-01-06T04:42:13;11.65;;;7.40;;
25439;SDS011;13365;52.208;5.488;2024-01-06T04:44:39;13.27;;;7.82;;
25439;SDS011;13365;52.208;5.488;2024-01-06T04:47:05;12.95;;;7.05;;
25439;SDS011;13365;52.208;5.488;2024-01-06T04:49:31;17.88;;;8.15;;
25439;SDS011;13365;52.208;5.488;2024-01-06T04:51:56;14.10;;;8.07;;
25439;SDS011;13365;52.208;5.488;2024-01-06T04:54:22;16.42;;;7.45;;
25439;SDS011;13365;52.208;5.488;2024-01-06T04:56:49;12.52;;;7.18;;
25439;SDS011;13365;52.208;5.488;2024-01-06T04:59:14;13.73;;;7.50;;
25439;SDS011;13365;52.208;5.488;2024-01-06T05:01:40;12.77;;;7.07;;
25439;SDS011;13365;52.208;5.488;2024-01-06T05:04:06;14.75;;;8.27;;
25439;SDS011;13365;52.208;5.488;2024-01-06T05:06:31;14.57;;;8.18;;
25439;SDS011;13365;52.208;5.488;2024-01-06T05:08:57;14.60;;;8.15;;
25439;SDS011;13365;52.208;5.488;2024-01-06T05:11:22;12.77;;;8.07;;
25439;SDS011;13365;52.208;5.488;2024-01-06T05:13:48;17.15;;;8.18;;
25439;SDS011;13365;52.208;5.488;2024-01-06T05:16:13;14.35;;;7.90;;
25439;SDS011;13365;52.208;5.488;2024-01-06T05:18:39;13.95;;;8.20;;
25439;SDS011;13365;52.208;5.488;2024-01-06T05:21:04;13.65;;;8.13;;
25439;SDS011;13365;52.208;5.488;2024-01-06T05:23:30;14.02;;;7.93;;
25439;SDS011;13365;52.208;5.488;2024-01-06T05:25:56;12.45;;;7.90;;
25439;SDS011;13365;52.208;5.488;2024-01-06T05:28:21;14.73;;;7.93;;
25439;SDS011;13365;52.208;5.488;2024-01-06T05:30:47;12.02;;;7.80;;
25439;SDS011;13365;52.208;5.488;2024-01-06T05:33:12;14.85;;;8.77;;
25439;SDS011;13365;52.208;5.488;2024-01-06T05:35:38;15.02;;;8.02;;
25439;SDS011;13365;52.208;5.488;2024-01-06T05:38:04;13.05;;;8.48;;
25439;SDS011;13365;52.208;5.488;2024-01-06T05:40:30;17.92;;;8.60;;
25439;SDS011;13365;52.208;5.488;2024-01-06T05:42:55;17.67;;;8.10;;
25439;SDS011;13365;52.208;5.488;2024-01-06T05:45:22;16.17;;;8.75;;
25439;SDS011;13365;52.208;5.488;2024-01-06T05:47:48;18.17;;;9.43;;
25439;SDS011;13365;52.208;5.488;2024-01-06T05:50:15;16.05;;;9.05;;
25439;SDS011;13365;52.208;5.488;2024-01-06T05:52:41;15.43;;;9.73;;
25439;SDS011;13365;52.208;5.488;2024-01-06T05:55:07;17.83;;;9.60;;
25439;SDS011;13365;52.208;5.488;2024-01-06T05:57:32;18.02;;;9.70;;
25439;SDS011;13365;52.208;5.488;2024-01-06T05:59:59;17.10;;;9.95;;
25439;SDS011;13365;52.208;5.488;2024-01-06T06:02:24;14.40;;;8.63;;
25439;SDS011;13365;52.208;5.488;2024-01-06T06:04:50;20.63;;;9.07;;
25439;SDS011;13365;52.208;5.488;2024-01-06T06:07:17;12.45;;;7.22;;
25439;SDS011;13365;52.208;5.488;2024-01-06T06:09:43;15.07;;;8.27;;
25439;SDS011;13365;52.208;5.488;2024-01-06T06:12:13;20.98;;;9.45;;
25439;SDS011;13365;52.208;5.488;2024-01-06T06:14:39;16.27;;;8.98;;
25439;SDS011;13365;52.208;5.488;2024-01-06T06:17:04;14.88;;;8.60;;
25439;SDS011;13365;52.208;5.488;2024-01-06T06:19:31;12.80;;;8.15;;
25439;SDS011;13365;52.208;5.488;2024-01-06T06:21:56;14.35;;;7.85;;
25439;SDS011;13365;52.208;5.488;2024-01-06T06:24:22;14.60;;;8.10;;
25439;SDS011;13365;52.208;5.488;2024-01-06T06:26:47;16.17;;;8.25;;
25439;SDS011;13365;52.208;5.488;2024-01-06T06:29:13;15.32;;;8.13;;
25439;SDS011;13365;52.208;5.488;2024-01-06T06:31:39;13.18;;;7.88;;
25439;SDS011;13365;52.208;5.488;2024-01-06T06:34:04;14.13;;;8.75;;
25439;SDS011;13365;52.208;5.488;2024-01-06T06:36:30;14.02;;;7.82;;
25439;SDS011;13365;52.208;5.488;2024-01-06T06:38:55;13.40;;;7.80;;
25439;SDS011;13365;52.208;5.488;2024-01-06T06:41:23;14.07;;;7.18;;
25439;SDS011;13365;52.208;5.488;2024-01-06T06:43:49;13.77;;;8.02;;
25439;SDS011;13365;52.208;5.488;2024-01-06T06:46:15;15.82;;;8.00;;
25439;SDS011;13365;52.208;5.488;2024-01-06T06:48:41;13.27;;;6.85;;
25439;SDS011;13365;52.208;5.488;2024-01-06T06:51:07;13.32;;;7.35;;
25439;SDS011;13365;52.208;5.488;2024-01-06T06:53:32;16.98;;;7.72;;
25439;SDS011;13365;52.208;5.488;2024-01-06T06:55:58;14.27;;;7.63;;
25439;SDS011;13365;52.208;5.488;2024-01-06T06:58:23;15.57;;;7.95;;
25439;SDS011;13365;52.208;5.488;2024-01-06T07:00:49;13.27;;;7.18;;
25439;SDS011;13365;52.208;5.488;2024-01-06T07:03:14;18.23;;;7.97;;
25439;SDS011;13365;52.208;5.488;2024-01-06T07:05:40;14.38;;;8.10;;
25439;SDS011;13365;52.208;5.488;2024-01-06T07:08:06;13.82;;;7.25;;
25439;SDS011;13365;52.208;5.488;2024-01-06T07:10:32;13.20;;;7.38;;
25439;SDS011;13365;52.208;5.488;2024-01-06T07:12:57;11.40;;;6.90;;
25439;SDS011;13365;52.208;5.488;2024-01-06T07:15:23;12.50;;;6.85;;
25439;SDS011;13365;52.208;5.488;2024-01-06T07:17:48;12.75;;;6.90;;
25439;SDS011;13365;52.208;5.488;2024-01-06T07:20:14;14.70;;;7.35;;
25439;SDS011;13365;52.208;5.488;2024-01-06T07:22:40;12.25;;;6.78;;
25439;SDS011;13365;52.208;5.488;2024-01-06T07:25:06;15.48;;;7.00;;
25439;SDS011;13365;52.208;5.488;2024-01-06T07:27:32;12.40;;;6.57;;
25439;SDS011;13365;52.208;5.488;2024-01-06T07:29:58;10.77;;;6.47;;
25439;SDS011;13365;52.208;5.488;2024-01-06T07:32:23;13.00;;;6.70;;
25439;SDS011;13365;52.208;5.488;2024-01-06T07:34:49;11.80;;;6.07;;
25439;SDS011;13365;52.208;5.488;2024-01-06T07:37:15;12.13;;;6.50;;
25439;SDS011;13365;52.208;5.488;2024-01-06T07:39:41;13.20;;;6.35;;
25439;SDS011;13365;52.208;5.488;2024-01-06T07:42:06;12.80;;;6.03;;
25439;SDS011;13365;52.208;5.488;2024-01-06T07:44:32;12.18;;;6.75;;
25439;SDS011;13365;52.208;5.488;2024-01-06T07:46:58;13.80;;;6.90;;
25439;SDS011;13365;52.208;5.488;2024-01-06T07:49:24;12.70;;;6.80;;
25439;SDS011;13365;52.208;5.488;2024-01-06T07:51:50;13.07;;;7.25;;
25439;SDS011;13365;52.208;5.488;2024-01-06T07:54:15;13.27;;;7.07;;
25439;SDS011;13365;52.208;5.488;2024-01-06T07:56:41;12.73;;;7.20;;
25439;SDS011;13365;52.208;5.488;2024-01-06T07:59:08;11.02;;;6.72;;
25439;SDS011;13365;52.208;5.488;2024-01-06T08:01:35;12.50;;;7.65;;
25439;SDS011;13365;52.208;5.488;2024-01-06T08:04:03;16.70;;;7.32;;
25439;SDS011;13365;52.208;5.488;2024-01-06T08:06:32;11.52;;;7.13;;
25439;SDS011;13365;52.208;5.488;2024-01-06T08:08:58;11.15;;;7.18;;
25439;SDS011;13365;52.208;5.488;2024-01-06T08:11:25;15.88;;;7.50;;
25439;SDS011;13365;52.208;5.488;2024-01-06T08:13:50;14.10;;;7.38;;
25439;SDS011;13365;52.208;5.488;2024-01-06T08:16:16;13.57;;;7.82;;
25439;SDS011;13365;52.208;5.488;2024-01-06T08:18:42;15.43;;;7.65;;
25439;SDS011;13365;52.208;5.488;2024-01-06T08:21:07;14.20;;;7.00;;
25439;SDS011;13365;52.208;5.488;2024-01-06T08:23:33;11.18;;;6.93;;
25439;SDS011;13365;52.208;5.488;2024-01-06T08:25:58;11.75;;;6.75;;
25439;SDS011;13365;52.208;5.488;2024-01-06T08:28:25;12.60;;;6.88;;
25439;SDS011;13365;52.208;5.488;2024-01-06T08:30:51;12.50;;;7.07;;
25439;SDS011;13365;52.208;5.488;2024-01-06T08:33:17;12.70;;;6.43;;
25439;SDS011;13365;52.208;5.488;2024-01-06T08:35:42;12.63;;;6.95;;
25439;SDS011;13365;52.208;5.488;2024-01-06T08:38:09;12.85;;;7.15;;
25439;SDS011;13365;52.208;5.488;2024-01-06T08:40:34;12.18;;;7.45;;
25439;SDS011;13365;52.208;5.488;2024-01-06T08:43:01;16.48;;;7.60;;
25439;SDS011;13365;52.208;5.488;2024-01-06T08:45:27;13.63;;;7.05;;
25439;SDS011;13365;52.208;5.488;2024-01-06T08:47:53;10.75;;;6.78;;
25439;SDS011;13365;52.208;5.488;2024-01-06T08:50:18;14.27;;;7.28;;
25439;SDS011;13365;52.208;5.488;2024-01-06T08:52:44;13.88;;;6.90;;
25439;SDS011;13365;52.208;5.488;2024-01-06T08:55:09;13.32;;;6.43;;
25439;SDS011;13365;52.208;5.488;2024-01-06T08:57:35;15.40;;;6.78;;
25439;SDS011;13365;52.208;5.488;2024-01-06T09:00:02;12.30;;;7.40;;
25439;SDS011;13365;52.208;5.488;2024-01-06T09:02:31;11.43;;;6.38;;
25439;SDS011;13365;52.208;5.488;2024-01-06T09:04:57;11.52;;;6.90;;
25439;SDS011;13365;52.208;5.488;2024-01-06T09:07:23;10.88;;;6.43;;
25439;SDS011;13365;52.208;5.488;2024-01-06T09:09:48;9.15;;;6.05;;
25439;SDS011;13365;52.208;5.488;2024-01-06T09:12:14;11.07;;;6.80;;
25439;SDS011;13365;52.208;5.488;2024-01-06T09:14:39;11.07;;;6.88;;
25439;SDS011;13365;52.208;5.488;2024-01-06T09:17:05;11.68;;;6.80;;
25439;SDS011;13365;52.208;5.488;2024-01-06T09:19:31;12.70;;;6.57;;
25439;SDS011;13365;52.208;5.488;2024-01-06T09:21:56;9.43;;;5.47;;
25439;SDS011;13365;52.208;5.488;2024-01-06T09:24:22;10.57;;;6.45;;
25439;SDS011;13365;52.208;5.488;2024-01-06T09:26:48;10.35;;;6.13;;
25439;SDS011;13365;52.208;5.488;2024-01-06T09:29:15;15.10;;;6.63;;
25439;SDS011;13365;52.208;5.488;2024-01-06T09:31:41;11.48;;;7.18;;
25439;SDS011;13365;52.208;5.488;2024-01-06T09:34:08;13.00;;;6.20;;
25439;SDS011;13365;52.208;5.488;2024-01-06T09:36:34;10.88;;;5.72;;
25439;SDS011;13365;52.208;5.488;2024-01-06T09:39:00;12.88;;;6.40;;
25439;SDS011;13365;52.208;5.488;2024-01-06T09:41:26;10.45;;;6.60;;
25439;SDS011;13365;52.208;5.488;2024-01-06T09:43:52;12.80;;;6.50;;
25439;SDS011;13365;52.208;5.488;2024-01-06T09:46:21;10.25;;;6.05;;
25439;SDS011;13365;52.208;5.488;2024-01-06T09:48:54;11.90;;;6.63;;
25439;SDS011;13365;52.208;5.488;2024-01-06T09:51:20;12.32;;;6.15;;
25439;SDS011;13365;52.208;5.488;2024-01-06T09:53:48;14.10;;;6.22;;
25439;SDS011;13365;52.208;5.488;2024-01-06T09:56:22;9.40;;;5.80;;
25439;SDS011;13365;52.208;5.488;2024-01-06T09:58:50;9.93;;;6.45;;
25439;SDS011;13365;52.208;5.488;2024-01-06T10:01:16;11.45;;;6.95;;
25439;SDS011;13365;52.208;5.488;2024-01-06T10:03:42;12.35;;;6.32;;
25439;SDS011;13365;52.208;5.488;2024-01-06T10:06:10;15.48;;;7.65;;
25439;SDS011;13365;52.208;5.488;2024-01-06T10:08:36;13.27;;;6.72;;
25439;SDS011;13365;52.208;5.488;2024-01-06T10:11:05;12.25;;;6.57;;
25439;SDS011;13365;52.208;5.488;2024-01-06T10:13:34;14.50;;;7.13;;
25439;SDS011;13365;52.208;5.488;2024-01-06T10:16:00;15.93;;;6.97;;
25439;SDS011;13365;52.208;5.488;2024-01-06T10:18:26;11.82;;;6.78;;
25439;SDS011;13365;52.208;5.488;2024-01-06T10:20:54;12.68;;;6.20;;
25439;SDS011;13365;52.208;5.488;2024-01-06T10:23:22;10.60;;;6.18;;
25439;SDS011;13365;52.208;5.488;2024-01-06T10:25:51;12.15;;;6.05;;
25439;SDS011;13365;52.208;5.488;2024-01-06T10:28:18;13.27;;;6.70;;
25439;SDS011;13365;52.208;5.488;2024-01-06T10:30:45;11.30;;;6.57;;
25439;SDS011;13365;52.208;5.488;2024-01-06T10:33:13;9.18;;;6.03;;
25439;SDS011;13365;52.208;5.488;2024-01-06T10:35:39;11.65;;;7.03;;
25439;SDS011;13365;52.208;5.488;2024-01-06T10:38:06;16.23;;;6.78;;
25439;SDS011;13365;52.208;5.488;2024-01-06T10:40:32;14.10;;;6.80;;
25439;SDS011;13365;52.208;5.488;2024-01-06T10:42:58;11.80;;;6.65;;
25439;SDS011;13365;52.208;5.488;2024-01-06T10:45:25;14.02;;;7.25;;
25439;SDS011;13365;52.208;5.488;2024-01-06T10:47:53;15.45;;;7.45;;
25439;SDS011;13365;52.208;5.488;2024-01-06T10:50:19;12.07;;;7.25;;
25439;SDS011;13365;52.208;5.488;2024-01-06T10:52:46;12.23;;;7.00;;
25439;SDS011;13365;52.208;5.488;2024-01-06T10:55:13;10.50;;;6.70;;
25439;SDS011;13365;52.208;5.488;2024-01-06T10:57:43;13.43;;;6.55;;
25439;SDS011;13365;52.208;5.488;2024-01-06T11:00:10;13.88;;;6.93;;
25439;SDS011;13365;52.208;5.488;2024-01-06T11:02:36;14.75;;;6.63;;
25439;SDS011;13365;52.208;5.488;2024-01-06T11:05:02;10.25;;;6.88;;
25439;SDS011;13365;52.208;5.488;2024-01-06T11:07:32;12.02;;;6.75;;
25439;SDS011;13365;52.208;5.488;2024-01-06T11:12:24;12.68;;;6.60;;
25439;SDS011;13365;52.208;5.488;2024-01-06T11:14:51;13.05;;;7.63;;
25439;SDS011;13365;52.208;5.488;2024-01-06T11:20:13;13.13;;;6.82;;
25439;SDS011;13365;52.208;5.488;2024-01-06T11:22:39;11.68;;;6.10;;
25439;SDS011;13365;52.208;5.488;2024-01-06T11:27:32;8.70;;;4.68;;
25439;SDS011;13365;52.208;5.488;2024-01-06T11:29:58;8.90;;;5.05;;
25439;SDS011;13365;52.208;5.488;2024-01-06T11:32:27;10.55;;;4.88;;
25439;SDS011;13365;52.208;5.488;2024-01-06T11:34:56;10.38;;;4.88;;
25439;SDS011;13365;52.208;5.488;2024-01-06T11:40:11;9.30;;;4.88;;
25439;SDS011;13365;52.208;5.488;2024-01-06T11:42:47;9.00;;;4.40;;
25439;SDS011;13365;52.208;5.488;2024-01-06T11:45:21;10.35;;;5.30;;
25439;SDS011;13365;52.208;5.488;2024-01-06T11:47:47;8.90;;;4.50;;
25439;SDS011;13365;52.208;5.488;2024-01-06T11:50:13;8.43;;;5.28;;
25439;SDS011;13365;52.208;5.488;2024-01-06T11:52:40;10.73;;;5.53;;
25439;SDS011;13365;52.208;5.488;2024-01-06T11:55:06;9.50;;;6.53;;
25439;SDS011;13365;52.208;5.488;2024-01-06T11:57:35;11.38;;;6.75;;
25439;SDS011;13365;52.208;5.488;2024-01-06T12:00:01;10.60;;;5.93;;
25439;SDS011;13365;52.208;5.488;2024-01-06T12:02:29;12.27;;;6.68;;
25439;SDS011;13365;52.208;5.488;2024-01-06T12:04:54;14.50;;;6.47;;
25439;SDS011;13365;52.208;5.488;2024-01-06T12:07:20;9.82;;;6.22;;
25439;SDS011;13365;52.208;5.488;2024-01-06T12:09:47;13.73;;;6.65;;
25439;SDS011;13365;52.208;5.488;2024-01-06T12:12:16;11.57;;;6.75;;
25439;SDS011;13365;52.208;5.488;2024-01-06T12:14:46;11.40;;;6.40;;
25439;SDS011;13365;52.208;5.488;2024-01-06T12:17:12;13.38;;;7.13;;
25439;SDS011;13365;52.208;5.488;2024-01-06T12:19:39;12.07;;;7.43;;
25439;SDS011;13365;52.208;5.488;2024-01-06T12:22:12;10.07;;;7.00;;
25439;SDS011;13365;52.208;5.488;2024-01-06T12:24:38;14.60;;;7.53;;
25439;SDS011;13365;52.208;5.488;2024-01-06T12:27:06;16.48;;;11.85;;
25439;SDS011;13365;52.208;5.488;2024-01-06T12:29:32;15.57;;;7.43;;
25439;SDS011;13365;52.208;5.488;2024-01-06T12:32:01;13.98;;;8.27;;
25439;SDS011;13365;52.208;5.488;2024-01-06T12:34:27;13.55;;;7.68;;
25439;SDS011;13365;52.208;5.488;2024-01-06T12:36:54;11.48;;;6.90;;
25439;SDS011;13365;52.208;5.488;2024-01-06T12:39:23;12.75;;;7.07;;
25439;SDS011;13365;52.208;5.488;2024-01-06T12:41:52;15.20;;;8.13;;
25439;SDS011;13365;52.208;5.488;2024-01-06T12:44:20;12.50;;;7.03;;
25439;SDS011;13365;52.208;5.488;2024-01-06T12:46:46;12.15;;;7.20;;
25439;SDS011;13365;52.208;5.488;2024-01-06T12:49:12;16.20;;;6.97;;
25439;SDS011;13365;52.208;5.488;2024-01-06T12:51:38;12.20;;;7.60;;
25439;SDS011;13365;52.208;5.488;2024-01-06T12:54:04;17.05;;;7.70;;
25439;SDS011;13365;52.208;5.488;2024-01-06T12:56:30;13.13;;;7.82;;
25439;SDS011;13365;52.208;5.488;2024-01-06T12:58:56;12.70;;;7.63;;
25439;SDS011;13365;52.208;5.488;2024-01-06T13:01:21;13.98;;;7.65;;
25439;SDS011;13365;52.208;5.488;2024-01-06T13:03:47;14.57;;;8.27;;
25439;SDS011;13365;52.208;5.488;2024-01-06T13:06:13;14.65;;;8.30;;
25439;SDS011;13365;52.208;5.488;2024-01-06T13:08:40;16.35;;;8.32;;
25439;SDS011;13365;52.208;5.488;2024-01-06T13:11:06;13.93;;;8.30;;
25439;SDS011;13365;52.208;5.488;2024-01-06T13:13:32;12.80;;;8.15;;
25439;SDS011;13365;52.208;5.488;2024-01-06T13:15:58;12.27;;;7.68;;
25439;SDS011;13365;52.208;5.488;2024-01-06T13:18:27;17.90;;;8.30;;
25439;SDS011;13365;52.208;5.488;2024-01-06T13:20:53;15.07;;;8.50;;
25439;SDS011;13365;52.208;5.488;2024-01-06T13:23:19;16.35;;;7.72;;
25439;SDS011;13365;52.208;5.488;2024-01-06T13:25:44;13.38;;;8.52;;
25439;SDS011;13365;52.208;5.488;2024-01-06T13:28:11;13.85;;;7.70;;
25439;SDS011;13365;52.208;5.488;2024-01-06T13:30:37;17.17;;;8.07;;
25439;SDS011;13365;52.208;5.488;2024-01-06T13:33:04;17.02;;;8.38;;
25439;SDS011;13365;52.208;5.488;2024-01-06T13:35:30;14.25;;;8.43;;
25439;SDS011;13365;52.208;5.488;2024-01-06T13:37:56;13.88;;;8.05;;
25439;SDS011;13365;52.208;5.488;2024-01-06T13:40:22;12.93;;;7.57;;
25439;SDS011;13365;52.208;5.488;2024-01-06T13:42:48;12.10;;;7.28;;
25439;SDS011;13365;52.208;5.488;2024-01-06T13:45:15;16.40;;;7.90;;
25439;SDS011;13365;52.208;5.488;2024-01-06T13:47:41;14.18;;;7.35;;
25439;SDS011;13365;52.208;5.488;2024-01-06T13:50:09;12.52;;;7.68;;
25439;SDS011;13365;52.208;5.488;2024-01-06T13:52:38;16.15;;;8.13;;
25439;SDS011;13365;52.208;5.488;2024-01-06T13:55:05;15.05;;;7.65;;
25439;SDS011;13365;52.208;5.488;2024-01-06T13:57:31;13.48;;;7.70;;
25439;SDS011;13365;52.208;5.488;2024-01-06T13:59:57;15.20;;;7.45;;
25439;SDS011;13365;52.208;5.488;2024-01-06T14:02:23;15.65;;;7.72;;
25439;SDS011;13365;52.208;5.488;2024-01-06T14:04:49;16.15;;;8.05;;
25439;SDS011;13365;52.208;5.488;2024-01-06T14:07:16;15.20;;;8.32;;
25439;SDS011;13365;52.208;5.488;2024-01-06T14:09:45;12.32;;;7.45;;
25439;SDS011;13365;52.208;5.488;2024-01-06T14:12:10;15.80;;;8.25;;
25439;SDS011;13365;52.208;5.488;2024-01-06T14:14:36;14.45;;;8.27;;
25439;SDS011;13365;52.208;5.488;2024-01-06T14:17:02;11.18;;;6.03;;
25439;SDS011;13365;52.208;5.488;2024-01-06T14:19:28;14.13;;;6.40;;
25439;SDS011;13365;52.208;5.488;2024-01-06T14:21:54;10.27;;;6.50;;
25439;SDS011;13365;52.208;5.488;2024-01-06T14:24:19;12.27;;;7.18;;
25439;SDS011;13365;52.208;5.488;2024-01-06T14:26:49;10.73;;;5.90;;
25439;SDS011;13365;52.208;5.488;2024-01-06T14:29:16;10.15;;;5.60;;
25439;SDS011;13365;52.208;5.488;2024-01-06T14:31:44;9.18;;;5.30;;
25439;SDS011;13365;52.208;5.488;2024-01-06T14:34:10;11.77;;;6.38;;
25439;SDS011;13365;52.208;5.488;2024-01-06T14:36:36;12.13;;;5.80;;
25439;SDS011;13365;52.208;5.488;2024-01-06T14:39:02;10.20;;;5.90;;
25439;SDS011;13365;52.208;5.488;2024-01-06T14:41:31;10.30;;;5.47;;